sensor_id;sensor_type;location;lat;lon;timestamp;P1;durP1;ratioP1;P2;durP2;ratioP2
11113;SDS011;5610;52.154;9.198;2023-09-30T00:01:20;10.50;;;4.73;;
11113;SDS011;5610;52.154;9.198;2023-09-30T00:04:05;11.40;;;4.73;;
11113;SDS011;5610;52.154;9.198;2023-09-30T00:06:53;14.03;;;5.73;;
11113;SDS011;5610;52.154;9.198;2023-09-30T00:09:38;13.50;;;5.30;;
11113;SDS011;5610;52.154;9.198;2023-09-30T00:12:24;13.00;;;5.67;;
11113;SDS011;5610;52.154;9.198;2023-09-30T00:15:10;10.00;;;4.93;;
11113;SDS011;5610;52.154;9.198;2023-09-30T00:17:56;14.90;;;5.33;;
11113;SDS011;5610;52.154;9.198;2023-09-30T00:20:40;18.30;;;5.40;;
11113;SDS011;5610;52.154;9.198;2023-09-30T00:23:27;10.13;;;5.20;;
11113;SDS011;5610;52.154;9.198;2023-09-30T00:26:13;11.40;;;5.30;;
11113;SDS011;5610;52.154;9.198;2023-09-30T00:28:59;14.33;;;5.90;;
11113;SDS011;5610;52.154;9.198;2023-09-30T00:31:47;21.63;;;5.97;;
11113;SDS011;5610;52.154;9.198;2023-09-30T00:34:33;16.53;;;6.17;;
11113;SDS011;5610;52.154;9.198;2023-09-30T00:37:19;15.77;;;5.80;;
11113;SDS011;5610;52.154;9.198;2023-09-30T00:40:06;11.83;;;4.53;;
11113;SDS011;5610;52.154;9.198;2023-09-30T00:42:55;14.93;;;5.70;;
11113;SDS011;5610;52.154;9.198;2023-09-30T00:45:40;12.37;;;4.43;;
11113;SDS011;5610;52.154;9.198;2023-09-30T00:48:26;12.93;;;5.37;;
11113;SDS011;5610;52.154;9.198;2023-09-30T00:51:12;12.83;;;4.60;;
11113;SDS011;5610;52.154;9.198;2023-09-30T00:53:58;11.70;;;4.97;;
11113;SDS011;5610;52.154;9.198;2023-09-30T00:56:46;10.27;;;4.67;;
11113;SDS011;5610;52.154;9.198;2023-09-30T00:59:31;7.70;;;4.20;;
11113;SDS011;5610;52.154;9.198;2023-09-30T01:02:17;12.00;;;5.07;;
11113;SDS011;5610;52.154;9.198;2023-09-30T01:05:03;9.80;;;5.07;;
11113;SDS011;5610;52.154;9.198;2023-09-30T01:07:48;11.70;;;4.90;;
11113;SDS011;5610;52.154;9.198;2023-09-30T01:10:33;11.77;;;5.37;;
11113;SDS011;5610;52.154;9.198;2023-09-30T01:13:20;11.60;;;5.20;;
11113;SDS011;5610;52.154;9.198;2023-09-30T01:16:06;9.50;;;5.60;;
11113;SDS011;5610;52.154;9.198;2023-09-30T01:18:53;12.30;;;5.63;;
11113;SDS011;5610;52.154;9.198;2023-09-30T01:21:40;9.87;;;6.10;;
11113;SDS011;5610;52.154;9.198;2023-09-30T01:24:25;18.23;;;5.40;;
11113;SDS011;5610;52.154;9.198;2023-09-30T01:27:11;11.67;;;5.60;;
11113;SDS011;5610;52.154;9.198;2023-09-30T01:29:57;17.63;;;5.87;;
11113;SDS011;5610;52.154;9.198;2023-09-30T01:32:42;15.27;;;5.80;;
11113;SDS011;5610;52.154;9.198;2023-09-30T01:35:27;9.27;;;4.70;;
11113;SDS011;5610;52.154;9.198;2023-09-30T01:38:14;10.30;;;5.50;;
11113;SDS011;5610;52.154;9.198;2023-09-30T01:40:59;11.90;;;5.27;;
11113;SDS011;5610;52.154;9.198;2023-09-30T01:43:44;11.23;;;5.13;;
11113;SDS011;5610;52.154;9.198;2023-09-30T01:46:30;11.97;;;5.60;;
11113;SDS011;5610;52.154;9.198;2023-09-30T01:49:16;9.77;;;5.43;;
11113;SDS011;5610;52.154;9.198;2023-09-30T01:52:02;11.53;;;5.60;;
11113;SDS011;5610;52.154;9.198;2023-09-30T01:54:49;8.57;;;4.70;;
11113;SDS011;5610;52.154;9.198;2023-09-30T01:57:35;12.53;;;5.30;;
11113;SDS011;5610;52.154;9.198;2023-09-30T02:00:21;13.70;;;4.97;;
11113;SDS011;5610;52.154;9.198;2023-09-30T02:03:06;11.13;;;5.67;;
11113;SDS011;5610;52.154;9.198;2023-09-30T02:05:51;11.43;;;5.50;;
11113;SDS011;5610;52.154;9.198;2023-09-30T02:08:36;12.63;;;6.00;;
11113;SDS011;5610;52.154;9.198;2023-09-30T02:11:22;11.63;;;4.73;;
11113;SDS011;5610;52.154;9.198;2023-09-30T02:14:09;11.70;;;5.60;;
11113;SDS011;5610;52.154;9.198;2023-09-30T02:16:56;14.20;;;5.70;;
11113;SDS011;5610;52.154;9.198;2023-09-30T02:19:42;11.10;;;5.37;;
11113;SDS011;5610;52.154;9.198;2023-09-30T02:22:28;14.23;;;5.00;;
11113;SDS011;5610;52.154;9.198;2023-09-30T02:25:13;9.77;;;5.23;;
11113;SDS011;5610;52.154;9.198;2023-09-30T02:28:00;10.63;;;5.30;;
11113;SDS011;5610;52.154;9.198;2023-09-30T02:30:45;9.73;;;5.17;;
11113;SDS011;5610;52.154;9.198;2023-09-30T02:33:30;9.37;;;4.27;;
11113;SDS011;5610;52.154;9.198;2023-09-30T02:36:16;12.50;;;5.33;;
11113;SDS011;5610;52.154;9.198;2023-09-30T02:39:01;12.63;;;5.87;;
11113;SDS011;5610;52.154;9.198;2023-09-30T02:41:46;11.07;;;5.70;;
11113;SDS011;5610;52.154;9.198;2023-09-30T02:44:35;9.30;;;5.57;;
11113;SDS011;5610;52.154;9.198;2023-09-30T02:47:20;9.17;;;5.03;;
11113;SDS011;5610;52.154;9.198;2023-09-30T02:50:06;9.20;;;4.67;;
11113;SDS011;5610;52.154;9.198;2023-09-30T02:52:55;12.87;;;5.97;;
11113;SDS011;5610;52.154;9.198;2023-09-30T02:55:40;7.80;;;5.00;;
11113;SDS011;5610;52.154;9.198;2023-09-30T02:58:25;11.53;;;5.70;;
11113;SDS011;5610;52.154;9.198;2023-09-30T03:01:14;10.57;;;5.83;;
11113;SDS011;5610;52.154;9.198;2023-09-30T03:04:02;9.13;;;4.90;;
11113;SDS011;5610;52.154;9.198;2023-09-30T03:06:50;8.13;;;4.70;;
11113;SDS011;5610;52.154;9.198;2023-09-30T03:09:36;7.27;;;4.50;;
11113;SDS011;5610;52.154;9.198;2023-09-30T03:12:21;10.77;;;5.53;;
11113;SDS011;5610;52.154;9.198;2023-09-30T03:15:07;11.87;;;6.07;;
11113;SDS011;5610;52.154;9.198;2023-09-30T03:17:54;11.40;;;5.33;;
11113;SDS011;5610;52.154;9.198;2023-09-30T03:20:39;14.43;;;5.60;;
11113;SDS011;5610;52.154;9.198;2023-09-30T03:23:25;10.37;;;5.43;;
11113;SDS011;5610;52.154;9.198;2023-09-30T03:26:14;8.60;;;4.47;;
11113;SDS011;5610;52.154;9.198;2023-09-30T03:28:59;11.47;;;5.50;;
11113;SDS011;5610;52.154;9.198;2023-09-30T03:31:44;12.77;;;5.37;;
11113;SDS011;5610;52.154;9.198;2023-09-30T03:34:31;11.23;;;5.00;;
11113;SDS011;5610;52.154;9.198;2023-09-30T03:37:16;7.60;;;5.20;;
11113;SDS011;5610;52.154;9.198;2023-09-30T03:40:01;13.73;;;4.77;;
11113;SDS011;5610;52.154;9.198;2023-09-30T03:42:55;6.87;;;4.57;;
11113;SDS011;5610;52.154;9.198;2023-09-30T03:45:40;10.50;;;4.80;;
11113;SDS011;5610;52.154;9.198;2023-09-30T03:48:26;9.70;;;5.13;;
11113;SDS011;5610;52.154;9.198;2023-09-30T03:51:12;9.10;;;4.30;;
11113;SDS011;5610;52.154;9.198;2023-09-30T03:53:58;8.77;;;3.97;;
11113;SDS011;5610;52.154;9.198;2023-09-30T03:56:47;10.20;;;4.20;;
11113;SDS011;5610;52.154;9.198;2023-09-30T03:59:32;7.20;;;4.13;;
11113;SDS011;5610;52.154;9.198;2023-09-30T04:02:17;8.47;;;4.47;;
11113;SDS011;5610;52.154;9.198;2023-09-30T04:05:03;9.30;;;4.87;;
11113;SDS011;5610;52.154;9.198;2023-09-30T04:07:50;12.97;;;4.87;;
11113;SDS011;5610;52.154;9.198;2023-09-30T04:10:35;9.27;;;4.97;;
11113;SDS011;5610;52.154;9.198;2023-09-30T04:13:20;11.37;;;5.50;;
11113;SDS011;5610;52.154;9.198;2023-09-30T04:16:06;14.87;;;6.87;;
11113;SDS011;5610;52.154;9.198;2023-09-30T04:18:51;11.30;;;5.50;;
11113;SDS011;5610;52.154;9.198;2023-09-30T04:21:36;13.43;;;6.20;;
11113;SDS011;5610;52.154;9.198;2023-09-30T04:24:23;10.63;;;5.97;;
11113;SDS011;5610;52.154;9.198;2023-09-30T04:27:09;15.80;;;6.20;;
11113;SDS011;5610;52.154;9.198;2023-09-30T04:29:54;17.63;;;6.30;;
11113;SDS011;5610;52.154;9.198;2023-09-30T04:32:39;10.83;;;5.40;;
11113;SDS011;5610;52.154;9.198;2023-09-30T04:35:24;8.53;;;5.43;;
11113;SDS011;5610;52.154;9.198;2023-09-30T04:38:10;12.40;;;6.07;;
11113;SDS011;5610;52.154;9.198;2023-09-30T04:40:56;11.20;;;6.30;;
11113;SDS011;5610;52.154;9.198;2023-09-30T04:43:42;15.30;;;6.20;;
11113;SDS011;5610;52.154;9.198;2023-09-30T04:46:27;11.87;;;5.57;;
11113;SDS011;5610;52.154;9.198;2023-09-30T04:49:12;12.60;;;5.33;;
11113;SDS011;5610;52.154;9.198;2023-09-30T04:51:59;12.10;;;4.93;;
11113;SDS011;5610;52.154;9.198;2023-09-30T04:54:45;8.00;;;4.57;;
11113;SDS011;5610;52.154;9.198;2023-09-30T04:57:31;6.43;;;4.40;;
11113;SDS011;5610;52.154;9.198;2023-09-30T05:00:17;8.50;;;4.83;;
11113;SDS011;5610;52.154;9.198;2023-09-30T05:03:08;11.43;;;5.13;;
11113;SDS011;5610;52.154;9.198;2023-09-30T05:05:53;6.70;;;5.37;;
11113;SDS011;5610;52.154;9.198;2023-09-30T05:08:40;14.50;;;5.33;;
11113;SDS011;5610;52.154;9.198;2023-09-30T05:11:25;11.87;;;5.70;;
11113;SDS011;5610;52.154;9.198;2023-09-30T05:14:11;10.57;;;6.40;;
11113;SDS011;5610;52.154;9.198;2023-09-30T05:16:57;11.30;;;6.20;;
11113;SDS011;5610;52.154;9.198;2023-09-30T05:19:43;7.00;;;5.10;;
11113;SDS011;5610;52.154;9.198;2023-09-30T05:22:28;15.37;;;6.30;;
11113;SDS011;5610;52.154;9.198;2023-09-30T05:25:13;14.93;;;6.53;;
11113;SDS011;5610;52.154;9.198;2023-09-30T05:28:00;7.33;;;5.20;;
11113;SDS011;5610;52.154;9.198;2023-09-30T05:30:46;17.40;;;6.83;;
11113;SDS011;5610;52.154;9.198;2023-09-30T05:33:32;21.67;;;7.17;;
11113;SDS011;5610;52.154;9.198;2023-09-30T05:36:17;12.30;;;5.93;;
11113;SDS011;5610;52.154;9.198;2023-09-30T05:39:04;10.77;;;4.90;;
11113;SDS011;5610;52.154;9.198;2023-09-30T05:41:49;10.43;;;5.43;;
11113;SDS011;5610;52.154;9.198;2023-09-30T05:44:34;8.27;;;5.00;;
11113;SDS011;5610;52.154;9.198;2023-09-30T05:47:21;11.73;;;6.20;;
11113;SDS011;5610;52.154;9.198;2023-09-30T05:50:06;15.33;;;5.40;;
11113;SDS011;5610;52.154;9.198;2023-09-30T05:52:53;9.13;;;5.30;;
11113;SDS011;5610;52.154;9.198;2023-09-30T05:55:40;8.30;;;5.00;;
11113;SDS011;5610;52.154;9.198;2023-09-30T05:58:26;11.47;;;6.07;;
11113;SDS011;5610;52.154;9.198;2023-09-30T06:01:11;11.50;;;5.30;;
11113;SDS011;5610;52.154;9.198;2023-09-30T06:04:00;6.40;;;5.23;;
11113;SDS011;5610;52.154;9.198;2023-09-30T06:06:45;12.53;;;5.77;;
11113;SDS011;5610;52.154;9.198;2023-09-30T06:09:30;10.27;;;5.23;;
11113;SDS011;5610;52.154;9.198;2023-09-30T06:12:15;9.67;;;5.23;;
11113;SDS011;5610;52.154;9.198;2023-09-30T06:15:01;10.10;;;4.50;;
11113;SDS011;5610;52.154;9.198;2023-09-30T06:17:46;10.40;;;4.37;;
11113;SDS011;5610;52.154;9.198;2023-09-30T06:20:32;7.93;;;3.93;;
11113;SDS011;5610;52.154;9.198;2023-09-30T06:23:18;10.33;;;5.60;;
11113;SDS011;5610;52.154;9.198;2023-09-30T06:26:03;10.20;;;6.00;;
11113;SDS011;5610;52.154;9.198;2023-09-30T06:28:48;11.00;;;5.87;;
11113;SDS011;5610;52.154;9.198;2023-09-30T06:31:33;7.03;;;5.30;;
11113;SDS011;5610;52.154;9.198;2023-09-30T06:34:18;8.90;;;5.03;;
11113;SDS011;5610;52.154;9.198;2023-09-30T06:37:05;8.83;;;6.03;;
11113;SDS011;5610;52.154;9.198;2023-09-30T06:39:50;9.50;;;5.33;;
11113;SDS011;5610;52.154;9.198;2023-09-30T06:42:35;8.10;;;5.20;;
11113;SDS011;5610;52.154;9.198;2023-09-30T06:45:22;8.73;;;6.00;;
11113;SDS011;5610;52.154;9.198;2023-09-30T06:48:07;8.23;;;5.40;;
11113;SDS011;5610;52.154;9.198;2023-09-30T06:50:56;8.13;;;5.30;;
11113;SDS011;5610;52.154;9.198;2023-09-30T06:53:44;10.20;;;5.37;;
11113;SDS011;5610;52.154;9.198;2023-09-30T06:56:30;12.40;;;5.93;;
11113;SDS011;5610;52.154;9.198;2023-09-30T06:59:15;9.23;;;5.90;;
11113;SDS011;5610;52.154;9.198;2023-09-30T07:02:01;13.00;;;5.80;;
11113;SDS011;5610;52.154;9.198;2023-09-30T07:04:47;8.30;;;6.33;;
11113;SDS011;5610;52.154;9.198;2023-09-30T07:07:32;9.37;;;5.20;;
11113;SDS011;5610;52.154;9.198;2023-09-30T07:10:19;14.00;;;6.40;;
11113;SDS011;5610;52.154;9.198;2023-09-30T07:13:04;12.43;;;5.33;;
11113;SDS011;5610;52.154;9.198;2023-09-30T07:15:50;11.40;;;5.60;;
11113;SDS011;5610;52.154;9.198;2023-09-30T07:18:35;10.43;;;5.93;;
11113;SDS011;5610;52.154;9.198;2023-09-30T07:21:21;8.87;;;5.60;;
11113;SDS011;5610;52.154;9.198;2023-09-30T07:24:06;9.40;;;5.30;;
11113;SDS011;5610;52.154;9.198;2023-09-30T07:26:53;7.83;;;5.20;;
11113;SDS011;5610;52.154;9.198;2023-09-30T07:29:38;11.70;;;6.10;;
11113;SDS011;5610;52.154;9.198;2023-09-30T07:32:24;11.33;;;6.07;;
11113;SDS011;5610;52.154;9.198;2023-09-30T07:35:09;12.90;;;6.43;;
11113;SDS011;5610;52.154;9.198;2023-09-30T07:37:54;9.13;;;5.30;;
11113;SDS011;5610;52.154;9.198;2023-09-30T07:40:39;13.67;;;6.03;;
11113;SDS011;5610;52.154;9.198;2023-09-30T07:43:26;10.47;;;5.90;;
11113;SDS011;5610;52.154;9.198;2023-09-30T07:46:12;7.63;;;5.27;;
11113;SDS011;5610;52.154;9.198;2023-09-30T07:48:59;11.00;;;6.30;;
11113;SDS011;5610;52.154;9.198;2023-09-30T07:51:44;10.63;;;5.80;;
11113;SDS011;5610;52.154;9.198;2023-09-30T07:54:30;15.20;;;6.07;;
11113;SDS011;5610;52.154;9.198;2023-09-30T07:57:16;11.67;;;6.17;;
11113;SDS011;5610;52.154;9.198;2023-09-30T08:00:03;13.30;;;5.87;;
11113;SDS011;5610;52.154;9.198;2023-09-30T08:02:53;12.70;;;6.40;;
11113;SDS011;5610;52.154;9.198;2023-09-30T08:05:38;9.90;;;5.90;;
11113;SDS011;5610;52.154;9.198;2023-09-30T08:08:24;9.97;;;5.70;;
11113;SDS011;5610;52.154;9.198;2023-09-30T08:11:09;12.30;;;6.80;;
11113;SDS011;5610;52.154;9.198;2023-09-30T08:13:54;13.30;;;6.50;;
11113;SDS011;5610;52.154;9.198;2023-09-30T08:16:40;12.67;;;6.77;;
11113;SDS011;5610;52.154;9.198;2023-09-30T08:19:26;12.40;;;6.07;;
11113;SDS011;5610;52.154;9.198;2023-09-30T08:22:11;18.10;;;6.13;;
11113;SDS011;5610;52.154;9.198;2023-09-30T08:24:57;13.30;;;6.00;;
11113;SDS011;5610;52.154;9.198;2023-09-30T08:27:43;10.80;;;5.90;;
11113;SDS011;5610;52.154;9.198;2023-09-30T08:30:29;12.40;;;5.83;;
11113;SDS011;5610;52.154;9.198;2023-09-30T08:33:15;13.47;;;5.30;;
11113;SDS011;5610;52.154;9.198;2023-09-30T08:36:04;11.57;;;5.83;;
11113;SDS011;5610;52.154;9.198;2023-09-30T08:38:51;11.47;;;5.27;;
11113;SDS011;5610;52.154;9.198;2023-09-30T08:41:36;12.53;;;5.20;;
11113;SDS011;5610;52.154;9.198;2023-09-30T08:44:21;11.17;;;5.50;;
11113;SDS011;5610;52.154;9.198;2023-09-30T08:47:07;11.20;;;5.33;;
11113;SDS011;5610;52.154;9.198;2023-09-30T08:49:54;14.83;;;6.00;;
11113;SDS011;5610;52.154;9.198;2023-09-30T08:52:49;10.57;;;4.93;;
11113;SDS011;5610;52.154;9.198;2023-09-30T08:55:37;9.30;;;5.40;;
11113;SDS011;5610;52.154;9.198;2023-09-30T08:58:24;13.37;;;5.03;;
11113;SDS011;5610;52.154;9.198;2023-09-30T09:01:11;12.50;;;5.13;;
11113;SDS011;5610;52.154;9.198;2023-09-30T09:03:57;9.83;;;5.20;;
11113;SDS011;5610;52.154;9.198;2023-09-30T09:06:43;11.90;;;5.20;;
11113;SDS011;5610;52.154;9.198;2023-09-30T09:09:29;11.30;;;4.47;;
11113;SDS011;5610;52.154;9.198;2023-09-30T09:12:18;9.83;;;5.10;;
11113;SDS011;5610;52.154;9.198;2023-09-30T09:15:04;11.00;;;5.10;;
11113;SDS011;5610;52.154;9.198;2023-09-30T09:17:51;9.23;;;4.87;;
11113;SDS011;5610;52.154;9.198;2023-09-30T09:20:36;13.30;;;5.30;;
11113;SDS011;5610;52.154;9.198;2023-09-30T09:23:22;9.57;;;4.63;;
11113;SDS011;5610;52.154;9.198;2023-09-30T09:26:08;11.47;;;4.80;;
11113;SDS011;5610;52.154;9.198;2023-09-30T09:28:58;11.50;;;5.17;;
11113;SDS011;5610;52.154;9.198;2023-09-30T09:31:44;8.30;;;4.33;;
11113;SDS011;5610;52.154;9.198;2023-09-30T09:34:29;9.40;;;4.83;;
11113;SDS011;5610;52.154;9.198;2023-09-30T09:37:15;8.33;;;4.53;;
11113;SDS011;5610;52.154;9.198;2023-09-30T09:40:03;13.40;;;4.80;;
11113;SDS011;5610;52.154;9.198;2023-09-30T09:42:51;9.53;;;5.00;;
11113;SDS011;5610;52.154;9.198;2023-09-30T09:45:38;8.70;;;4.10;;
11113;SDS011;5610;52.154;9.198;2023-09-30T09:48:24;14.30;;;4.43;;
11113;SDS011;5610;52.154;9.198;2023-09-30T09:51:10;11.43;;;4.60;;
11113;SDS011;5610;52.154;9.198;2023-09-30T09:53:56;11.33;;;4.50;;
11113;SDS011;5610;52.154;9.198;2023-09-30T09:56:44;7.43;;;4.20;;
11113;SDS011;5610;52.154;9.198;2023-09-30T09:59:30;9.70;;;4.23;;
11113;SDS011;5610;52.154;9.198;2023-09-30T10:02:16;7.50;;;4.30;;
11113;SDS011;5610;52.154;9.198;2023-09-30T10:05:02;11.23;;;4.80;;
11113;SDS011;5610;52.154;9.198;2023-09-30T10:07:50;10.20;;;4.47;;
11113;SDS011;5610;52.154;9.198;2023-09-30T10:10:38;7.00;;;4.17;;
11113;SDS011;5610;52.154;9.198;2023-09-30T10:16:49;7.67;;;4.20;;
11113;SDS011;5610;52.154;9.198;2023-09-30T10:19:35;11.10;;;4.37;;
11113;SDS011;5610;52.154;9.198;2023-09-30T10:22:24;6.73;;;3.70;;
11113;SDS011;5610;52.154;9.198;2023-09-30T10:28:34;6.30;;;3.00;;
11113;SDS011;5610;52.154;9.198;2023-09-30T10:31:22;5.37;;;3.30;;
11113;SDS011;5610;52.154;9.198;2023-09-30T10:34:17;7.47;;;3.40;;
11113;SDS011;5610;52.154;9.198;2023-09-30T10:37:19;5.83;;;3.43;;
11113;SDS011;5610;52.154;9.198;2023-09-30T10:40:05;8.50;;;3.47;;
11113;SDS011;5610;52.154;9.198;2023-09-30T10:42:53;3.93;;;2.67;;
11113;SDS011;5610;52.154;9.198;2023-09-30T10:45:44;6.43;;;2.37;;
11113;SDS011;5610;52.154;9.198;2023-09-30T10:48:38;5.43;;;2.93;;
11113;SDS011;5610;52.154;9.198;2023-09-30T10:51:24;4.50;;;2.63;;
11113;SDS011;5610;52.154;9.198;2023-09-30T10:54:11;4.07;;;2.40;;
11113;SDS011;5610;52.154;9.198;2023-09-30T10:56:58;5.90;;;2.80;;
11113;SDS011;5610;52.154;9.198;2023-09-30T10:59:44;8.37;;;3.00;;
11113;SDS011;5610;52.154;9.198;2023-09-30T11:02:29;6.97;;;2.67;;
11113;SDS011;5610;52.154;9.198;2023-09-30T11:05:16;4.30;;;2.40;;
11113;SDS011;5610;52.154;9.198;2023-09-30T11:08:02;4.90;;;2.90;;
11113;SDS011;5610;52.154;9.198;2023-09-30T11:10:48;4.80;;;2.70;;
11113;SDS011;5610;52.154;9.198;2023-09-30T11:13:34;7.97;;;2.83;;
11113;SDS011;5610;52.154;9.198;2023-09-30T11:16:22;4.13;;;2.40;;
11113;SDS011;5610;52.154;9.198;2023-09-30T11:19:07;5.63;;;2.90;;
11113;SDS011;5610;52.154;9.198;2023-09-30T11:21:54;6.00;;;3.07;;
11113;SDS011;5610;52.154;9.198;2023-09-30T11:24:40;8.27;;;3.00;;
11113;SDS011;5610;52.154;9.198;2023-09-30T11:27:26;5.60;;;2.73;;
11113;SDS011;5610;52.154;9.198;2023-09-30T11:30:12;5.50;;;2.93;;
11113;SDS011;5610;52.154;9.198;2023-09-30T11:32:58;4.77;;;2.70;;
11113;SDS011;5610;52.154;9.198;2023-09-30T11:35:54;5.40;;;3.53;;
11113;SDS011;5610;52.154;9.198;2023-09-30T11:38:45;7.73;;;2.70;;
11113;SDS011;5610;52.154;9.198;2023-09-30T11:41:35;6.17;;;3.17;;
11113;SDS011;5610;52.154;9.198;2023-09-30T11:44:23;8.13;;;3.20;;
11113;SDS011;5610;52.154;9.198;2023-09-30T11:47:09;5.57;;;3.23;;
11113;SDS011;5610;52.154;9.198;2023-09-30T11:49:56;5.53;;;2.70;;
11113;SDS011;5610;52.154;9.198;2023-09-30T11:52:43;6.87;;;3.50;;
11113;SDS011;5610;52.154;9.198;2023-09-30T11:55:31;8.47;;;4.20;;
11113;SDS011;5610;52.154;9.198;2023-09-30T11:58:16;4.43;;;3.10;;
11113;SDS011;5610;52.154;9.198;2023-09-30T12:01:03;7.30;;;3.23;;
11113;SDS011;5610;52.154;9.198;2023-09-30T12:03:51;6.47;;;3.00;;
11113;SDS011;5610;52.154;9.198;2023-09-30T12:06:38;7.00;;;3.30;;
11113;SDS011;5610;52.154;9.198;2023-09-30T12:09:23;8.07;;;3.43;;
11113;SDS011;5610;52.154;9.198;2023-09-30T12:12:12;7.60;;;3.80;;
11113;SDS011;5610;52.154;9.198;2023-09-30T12:14:58;6.83;;;2.73;;
11113;SDS011;5610;52.154;9.198;2023-09-30T12:17:44;6.43;;;3.27;;
11113;SDS011;5610;52.154;9.198;2023-09-30T12:20:29;6.87;;;3.70;;
11113;SDS011;5610;52.154;9.198;2023-09-30T12:23:14;5.83;;;2.83;;
11113;SDS011;5610;52.154;9.198;2023-09-30T12:26:01;7.23;;;3.10;;
11113;SDS011;5610;52.154;9.198;2023-09-30T12:28:50;4.90;;;2.97;;
11113;SDS011;5610;52.154;9.198;2023-09-30T12:31:35;5.43;;;3.10;;
11113;SDS011;5610;52.154;9.198;2023-09-30T12:34:20;8.03;;;2.67;;
11113;SDS011;5610;52.154;9.198;2023-09-30T12:37:06;6.13;;;3.47;;
11113;SDS011;5610;52.154;9.198;2023-09-30T12:39:52;5.83;;;2.57;;
11113;SDS011;5610;52.154;9.198;2023-09-30T12:42:37;5.90;;;3.20;;
11113;SDS011;5610;52.154;9.198;2023-09-30T12:45:23;8.40;;;3.43;;
11113;SDS011;5610;52.154;9.198;2023-09-30T12:48:09;5.63;;;3.10;;
11113;SDS011;5610;52.154;9.198;2023-09-30T12:50:54;5.70;;;2.83;;
11113;SDS011;5610;52.154;9.198;2023-09-30T12:53:39;5.83;;;2.70;;
11113;SDS011;5610;52.154;9.198;2023-09-30T12:56:24;6.10;;;3.10;;
11113;SDS011;5610;52.154;9.198;2023-09-30T12:59:09;9.10;;;2.93;;
11113;SDS011;5610;52.154;9.198;2023-09-30T13:01:56;4.77;;;3.33;;
11113;SDS011;5610;52.154;9.198;2023-09-30T13:04:41;8.70;;;7.07;;
11113;SDS011;5610;52.154;9.198;2023-09-30T13:07:28;4.63;;;3.30;;
11113;SDS011;5610;52.154;9.198;2023-09-30T13:10:13;4.87;;;2.57;;
11113;SDS011;5610;52.154;9.198;2023-09-30T13:12:58;6.27;;;3.07;;
11113;SDS011;5610;52.154;9.198;2023-09-30T13:15:43;5.63;;;2.60;;
11113;SDS011;5610;52.154;9.198;2023-09-30T13:18:30;5.80;;;4.10;;
11113;SDS011;5610;52.154;9.198;2023-09-30T13:21:16;7.30;;;3.83;;
11113;SDS011;5610;52.154;9.198;2023-09-30T13:24:01;7.23;;;5.00;;
11113;SDS011;5610;52.154;9.198;2023-09-30T13:26:46;4.90;;;2.93;;
11113;SDS011;5610;52.154;9.198;2023-09-30T13:29:32;6.37;;;2.97;;
11113;SDS011;5610;52.154;9.198;2023-09-30T13:32:17;4.77;;;3.10;;
11113;SDS011;5610;52.154;9.198;2023-09-30T13:35:05;4.57;;;3.30;;
11113;SDS011;5610;52.154;9.198;2023-09-30T13:37:51;5.20;;;4.70;;
11113;SDS011;5610;52.154;9.198;2023-09-30T13:40:36;4.43;;;3.30;;
11113;SDS011;5610;52.154;9.198;2023-09-30T13:43:23;10.77;;;9.10;;
11113;SDS011;5610;52.154;9.198;2023-09-30T13:46:10;6.20;;;4.30;;
11113;SDS011;5610;52.154;9.198;2023-09-30T13:48:56;6.77;;;4.40;;
11113;SDS011;5610;52.154;9.198;2023-09-30T13:51:43;5.00;;;2.70;;
11113;SDS011;5610;52.154;9.198;2023-09-30T13:54:28;3.70;;;2.60;;
11113;SDS011;5610;52.154;9.198;2023-09-30T13:57:13;6.00;;;2.87;;
11113;SDS011;5610;52.154;9.198;2023-09-30T13:59:58;4.60;;;2.70;;
11113;SDS011;5610;52.154;9.198;2023-09-30T14:02:43;4.87;;;2.90;;
11113;SDS011;5610;52.154;9.198;2023-09-30T14:05:29;6.30;;;3.20;;
11113;SDS011;5610;52.154;9.198;2023-09-30T14:08:15;5.93;;;3.13;;
11113;SDS011;5610;52.154;9.198;2023-09-30T14:11:01;5.40;;;3.13;;
11113;SDS011;5610;52.154;9.198;2023-09-30T14:13:46;4.40;;;2.57;;
11113;SDS011;5610;52.154;9.198;2023-09-30T14:16:32;4.40;;;2.60;;
11113;SDS011;5610;52.154;9.198;2023-09-30T14:19:18;4.23;;;2.70;;
11113;SDS011;5610;52.154;9.198;2023-09-30T14:22:03;4.40;;;2.80;;
11113;SDS011;5610;52.154;9.198;2023-09-30T14:24:50;5.60;;;2.50;;
11113;SDS011;5610;52.154;9.198;2023-09-30T14:27:35;5.33;;;3.20;;
11113;SDS011;5610;52.154;9.198;2023-09-30T14:30:21;4.20;;;3.07;;
11113;SDS011;5610;52.154;9.198;2023-09-30T14:33:06;5.17;;;3.07;;
11113;SDS011;5610;52.154;9.198;2023-09-30T14:35:51;6.00;;;3.00;;
11113;SDS011;5610;52.154;9.198;2023-09-30T14:38:37;7.73;;;3.13;;
11113;SDS011;5610;52.154;9.198;2023-09-30T14:41:23;7.10;;;2.63;;
11113;SDS011;5610;52.154;9.198;2023-09-30T14:44:08;4.37;;;3.10;;
11113;SDS011;5610;52.154;9.198;2023-09-30T14:46:55;4.40;;;2.67;;
11113;SDS011;5610;52.154;9.198;2023-09-30T14:49:41;6.00;;;3.07;;
11113;SDS011;5610;52.154;9.198;2023-09-30T14:52:26;5.10;;;2.67;;
11113;SDS011;5610;52.154;9.198;2023-09-30T14:55:12;5.07;;;3.13;;
11113;SDS011;5610;52.154;9.198;2023-09-30T14:57:58;5.23;;;3.13;;
11113;SDS011;5610;52.154;9.198;2023-09-30T15:00:44;6.27;;;3.77;;
11113;SDS011;5610;52.154;9.198;2023-09-30T15:03:31;8.20;;;3.40;;
11113;SDS011;5610;52.154;9.198;2023-09-30T15:06:19;7.00;;;3.50;;
11113;SDS011;5610;52.154;9.198;2023-09-30T15:09:04;9.40;;;4.03;;
11113;SDS011;5610;52.154;9.198;2023-09-30T15:11:53;4.87;;;3.07;;
11113;SDS011;5610;52.154;9.198;2023-09-30T15:14:39;6.63;;;3.40;;
11113;SDS011;5610;52.154;9.198;2023-09-30T15:17:25;7.27;;;3.47;;
11113;SDS011;5610;52.154;9.198;2023-09-30T15:20:11;7.17;;;3.70;;
11113;SDS011;5610;52.154;9.198;2023-09-30T15:22:56;5.87;;;3.80;;
11113;SDS011;5610;52.154;9.198;2023-09-30T15:25:42;7.30;;;3.77;;
11113;SDS011;5610;52.154;9.198;2023-09-30T15:28:27;7.27;;;3.33;;
11113;SDS011;5610;52.154;9.198;2023-09-30T15:31:14;7.50;;;4.70;;
11113;SDS011;5610;52.154;9.198;2023-09-30T15:33:59;11.43;;;4.80;;
11113;SDS011;5610;52.154;9.198;2023-09-30T15:36:44;7.17;;;4.10;;
11113;SDS011;5610;52.154;9.198;2023-09-30T15:39:30;6.57;;;4.20;;
11113;SDS011;5610;52.154;9.198;2023-09-30T15:42:22;6.33;;;3.70;;
11113;SDS011;5610;52.154;9.198;2023-09-30T15:45:07;6.40;;;4.20;;
11113;SDS011;5610;52.154;9.198;2023-09-30T15:47:55;11.20;;;4.20;;
11113;SDS011;5610;52.154;9.198;2023-09-30T15:50:40;5.77;;;3.63;;
11113;SDS011;5610;52.154;9.198;2023-09-30T15:53:25;7.67;;;5.07;;
11113;SDS011;5610;52.154;9.198;2023-09-30T15:56:11;11.03;;;4.60;;
11113;SDS011;5610;52.154;9.198;2023-09-30T15:58:57;6.50;;;4.13;;
11113;SDS011;5610;52.154;9.198;2023-09-30T16:01:42;6.80;;;4.10;;
11113;SDS011;5610;52.154;9.198;2023-09-30T16:04:29;7.90;;;3.93;;
11113;SDS011;5610;52.154;9.198;2023-09-30T16:07:15;8.67;;;4.57;;
11113;SDS011;5610;52.154;9.198;2023-09-30T16:10:00;5.07;;;3.50;;
11113;SDS011;5610;52.154;9.198;2023-09-30T16:12:46;7.20;;;3.63;;
11113;SDS011;5610;52.154;9.198;2023-09-30T16:15:32;4.30;;;3.90;;
11113;SDS011;5610;52.154;9.198;2023-09-30T16:18:18;7.07;;;3.63;;
11113;SDS011;5610;52.154;9.198;2023-09-30T16:21:04;6.57;;;3.73;;
11113;SDS011;5610;52.154;9.198;2023-09-30T16:23:50;6.80;;;3.93;;
11113;SDS011;5610;52.154;9.198;2023-09-30T16:26:35;11.20;;;3.80;;
11113;SDS011;5610;52.154;9.198;2023-09-30T16:29:20;6.93;;;3.70;;
11113;SDS011;5610;52.154;9.198;2023-09-30T16:32:06;7.73;;;4.17;;
11113;SDS011;5610;52.154;9.198;2023-09-30T16:34:51;7.00;;;3.70;;
11113;SDS011;5610;52.154;9.198;2023-09-30T16:37:38;4.70;;;3.90;;
11113;SDS011;5610;52.154;9.198;2023-09-30T16:40:23;7.17;;;3.90;;
11113;SDS011;5610;52.154;9.198;2023-09-30T16:43:08;5.23;;;3.70;;
11113;SDS011;5610;52.154;9.198;2023-09-30T16:45:54;8.10;;;4.20;;
11113;SDS011;5610;52.154;9.198;2023-09-30T16:48:44;6.30;;;4.13;;
11113;SDS011;5610;52.154;9.198;2023-09-30T16:51:29;6.80;;;4.00;;
11113;SDS011;5610;52.154;9.198;2023-09-30T16:54:16;4.10;;;3.30;;
11113;SDS011;5610;52.154;9.198;2023-09-30T16:57:01;3.97;;;3.60;;